createdAt,value
2019-04-30T00:02:23.137Z,63.50
2019-04-30T00:04:51.973Z,63.60
2019-04-30T00:07:20.776Z,63.60
2019-04-30T00:09:53.919Z,63.80
2019-04-30T00:12:21.125Z,63.80
2019-04-30T00:14:49.963Z,64.00
2019-04-30T00:17:19.790Z,64.10
2019-04-30T00:19:50.579Z,64.20
2019-04-30T00:22:30.931Z,64.20
2019-04-30T00:24:50.058Z,64.40
2019-04-30T00:27:21.090Z,64.50
2019-04-30T00:29:49.423Z,64.50
2019-04-30T00:32:18.240Z,64.80
2019-04-30T00:34:47.029Z,64.70
2019-04-30T00:37:18.797Z,64.60
2019-04-30T00:39:51.124Z,64.70
2019-04-30T00:42:24.114Z,64.80
2019-04-30T00:44:47.701Z,65.50
2019-04-30T00:47:16.517Z,65.00
2019-04-30T00:49:47.261Z,64.90
2019-04-30T00:52:15.697Z,65.00
2019-04-30T00:54:45.253Z,65.10
2019-04-30T00:57:15.171Z,65.00
2019-04-30T00:59:47.881Z,65.20
2019-04-30T01:02:40.230Z,65.30
2019-04-30T01:05:12.338Z,65.40
2019-04-30T01:07:48.676Z,65.50
2019-04-30T01:10:12.802Z,65.50
2019-04-30T01:12:47.070Z,65.50
2019-04-30T01:15:14.421Z,65.60
2019-04-30T01:17:45.440Z,65.80
2019-04-30T01:20:14.309Z,66.00
2019-04-30T01:22:43.316Z,66.10
2019-04-30T01:25:13.573Z,66.30
2019-04-30T01:27:45.762Z,66.30
2019-04-30T01:30:21.068Z,66.30
2019-04-30T01:32:44.733Z,66.30
2019-04-30T01:35:13.886Z,66.00
2019-04-30T01:37:42.679Z,66.50
2019-04-30T01:40:13.862Z,66.60
2019-04-30T01:42:48.013Z,66.70
2019-04-30T01:45:14.149Z,67.00
2019-04-30T01:47:42.910Z,66.90
2019-04-30T01:50:11.689Z,67.10
2019-04-30T01:52:52.617Z,67.10
2019-04-30T01:55:26.124Z,67.20
2019-04-30T01:58:08.843Z,67.30
2019-04-30T02:00:49.281Z,67.40
2019-04-30T02:03:19.349Z,67.50
2019-04-30T02:05:49.828Z,67.70
2019-04-30T02:08:19.524Z,67.80
2019-04-30T02:10:49.140Z,68.00
2019-04-30T02:13:19.017Z,68.10
2019-04-30T02:15:49.239Z,68.20
2019-04-30T02:18:19.501Z,68.20
2019-04-30T02:20:49.729Z,68.20
2019-04-30T02:23:19.639Z,68.40
2019-04-30T02:25:49.108Z,68.40
2019-04-30T02:28:19.014Z,68.40
2019-04-30T02:30:50.514Z,68.70
2019-04-30T02:33:19.945Z,68.60
2019-04-30T02:36:03.278Z,68.70
2019-04-30T02:38:31.801Z,68.90
2019-04-30T02:41:02.378Z,68.80
2019-04-30T02:43:33.419Z,69.10
2019-04-30T02:46:03.436Z,69.20
2019-04-30T02:48:33.486Z,69.40
2019-04-30T02:51:05.462Z,70.30
2019-04-30T02:54:22.940Z,69.80
2019-04-30T02:56:52.736Z,69.80
2019-04-30T02:59:59.980Z,69.70
2019-04-30T03:02:30.421Z,66.80
2019-04-30T03:05:00.282Z,69.80
2019-04-30T03:07:29.627Z,70.10
2019-04-30T03:09:59.839Z,70.10
2019-04-30T03:12:33.044Z,70.30
2019-04-30T03:15:00.421Z,70.30
2019-04-30T03:17:54.914Z,70.50
2019-04-30T03:20:35.630Z,70.50
2019-04-30T03:23:02.409Z,70.60
2019-04-30T03:25:31.198Z,70.80
2019-04-30T03:28:00.417Z,71.00
2019-04-30T03:30:32.013Z,71.10
2019-04-30T03:33:02.645Z,71.00
2019-04-30T03:35:32.386Z,71.10
2019-04-30T03:38:00.814Z,71.30
2019-04-30T03:40:30.206Z,71.40
2019-04-30T03:42:59.771Z,71.30
2019-04-30T03:45:30.178Z,71.40
2019-04-30T03:48:00.268Z,71.40
2019-04-30T03:50:36.565Z,70.60
2019-04-30T03:53:00.467Z,71.20
2019-04-30T03:55:29.869Z,71.00
2019-04-30T03:58:00.189Z,71.00
2019-04-30T04:00:42.133Z,71.00
2019-04-30T04:03:10.157Z,70.70
2019-04-30T04:06:09.260Z,70.70
2019-04-30T04:08:52.853Z,70.60
2019-04-30T04:11:25.146Z,70.30
2019-04-30T04:13:53.866Z,70.50
2019-04-30T04:16:22.622Z,70.40
2019-04-30T04:18:51.365Z,70.10
2019-04-30T04:21:20.758Z,70.20
2019-04-30T04:23:49.592Z,70.30
2019-04-30T04:26:20.235Z,70.20
2019-04-30T04:28:49.660Z,70.30
2019-04-30T04:31:19.308Z,70.20
2019-04-30T04:33:52.317Z,70.90
2019-04-30T04:36:19.987Z,70.40
2019-04-30T04:38:50.629Z,70.20
2019-04-30T04:41:19.910Z,70.20
2019-04-30T04:43:50.496Z,70.20
2019-04-30T04:46:20.503Z,70.10
2019-04-30T04:48:49.600Z,70.20
2019-04-30T04:51:33.297Z,70.10
2019-04-30T04:53:50.106Z,70.10
2019-04-30T04:56:19.211Z,70.20
2019-04-30T04:58:50.195Z,70.10
2019-04-30T05:01:20.361Z,70.30
2019-04-30T05:03:49.513Z,70.20
2019-04-30T05:06:21.880Z,70.10
2019-04-30T05:08:49.337Z,70.00
2019-04-30T05:11:19.217Z,70.00
2019-04-30T05:13:48.981Z,70.00
2019-04-30T05:16:19.039Z,70.00
2019-04-30T05:18:48.789Z,70.20
2019-04-30T05:21:18.834Z,70.00
2019-04-30T05:23:49.268Z,69.90
2019-04-30T05:26:19.065Z,69.30
2019-04-30T05:28:51.143Z,69.00
2019-04-30T05:31:20.850Z,68.50
2019-04-30T05:33:48.975Z,68.40
2019-04-30T05:36:19.203Z,68.30
2019-04-30T05:38:48.783Z,69.20
2019-04-30T05:41:19.305Z,68.60
2019-04-30T05:43:48.810Z,68.90
2019-04-30T05:46:19.655Z,68.80
2019-04-30T05:48:49.534Z,69.10
2019-04-30T05:51:19.342Z,69.20
2019-04-30T05:53:49.248Z,69.60
2019-04-30T05:56:19.314Z,69.80
2019-04-30T05:58:49.458Z,69.90
2019-04-30T06:01:19.625Z,70.10
2019-04-30T06:03:48.540Z,70.20
2019-04-30T06:06:19.165Z,70.30
2019-04-30T06:09:03.992Z,70.30
2019-04-30T06:11:42.595Z,70.50
2019-04-30T06:14:46.633Z,70.60
2019-04-30T06:17:09.920Z,70.60
2019-04-30T06:19:39.290Z,70.80
2019-04-30T06:22:10.777Z,70.80
2019-04-30T06:24:39.591Z,71.00
2019-04-30T06:27:10.521Z,71.00
2019-04-30T06:29:39.303Z,71.10
2019-04-30T06:32:08.673Z,71.30
2019-04-30T06:34:39.539Z,71.30
2019-04-30T06:37:09.748Z,71.40
2019-04-30T06:39:38.785Z,71.40
2019-04-30T06:42:12.236Z,71.70
2019-04-30T06:44:41.615Z,71.70
2019-04-30T06:47:09.477Z,71.90
2019-04-30T06:49:39.316Z,72.00
2019-04-30T06:52:19.644Z,72.10
2019-04-30T06:54:39.758Z,72.10
2019-04-30T06:57:09.818Z,72.30
2019-04-30T06:59:39.763Z,72.30
2019-04-30T07:02:09.247Z,72.60
2019-04-30T07:04:40.058Z,72.70
2019-04-30T07:07:09.269Z,72.70
2019-04-30T07:09:53.221Z,72.70
2019-04-30T07:12:27.229Z,72.70
2019-04-30T07:14:50.971Z,72.80
2019-04-30T07:17:19.769Z,72.70
2019-04-30T07:19:55.631Z,72.60
2019-04-30T07:22:23.899Z,72.80
